Bridal Veil, Oregon
Current Conditions -  °F | °C
As of 10:53 AM on Thursday 30 Oct 2014 (Local Time) from KTTD Reporting Station
Overcast Overcast  
Wind Chill: 59°   Ceiling: 10000
Heat Index: 59°   Visibility: 10mi
Dew Point: 52°   Wind: 22mph
Humidity: 78%   Direction: 80°E
Pressure: 29.83"   Gusts: 30mph
Location:  45.56°N, 122.17°W
Report Text: KTTD 301753Z 08019G26KT 10SM FEW075 OVC100 15/11 A2983 RMK AO2 PK WND 09027/1738 SLP102 60005 T01500111 10150 20139 58021
Loading
Personal Weather Stations






























Interactive Weather Map
Tropical Storm Tracking
New forecast layout! Learn more

10-Day Weather Forecast

Advertisements
Track Severe Weather on mobile